Time;durP1;ratioP1;P1;durP2;ratioP2;P2;SDS_P1;SDS_P2;PMS_P1;PMS_P2;Temp;Humidity;BMP_temperature;BMP_pressure;BME280_temperature;BME280_humidity;BME280_pressure;Samples;Min_cycle;Max_cycle;Signal;HPM_P1;HPM_P2
2022/08/01 00:00:30;;;;;;;7.13;5.95;;;;;;;15.72;100.00;93120.66;5096151;28;20497;-71
2022/08/01 00:02:57;;;;;;;6.82;6.13;;;;;;;15.67;100.00;93111.03;5103602;28;20096;-71
2022/08/01 00:05:23;;;;;;;7.75;7.00;;;;;;;15.69;100.00;93118.56;5101330;28;20059;-71
2022/08/01 00:07:52;;;;;;;8.23;6.13;;;;;;;15.68;100.00;93114.38;5095443;28;20044;-71
2022/08/01 00:10:19;;;;;;;6.78;6.15;;;;;;;15.63;100.00;93115.91;5099522;28;20047;-71
2022/08/01 00:12:47;;;;;;;6.25;5.65;;;;;;;15.60;100.00;93116.41;5094210;28;20489;-71
2022/08/01 00:15:16;;;;;;;7.18;6.18;;;;;;;15.56;100.00;93112.72;5100503;28;20093;-71
2022/08/01 00:17:44;;;;;;;6.55;5.82;;;;;;;15.52;100.00;93116.03;5103675;28;20047;-71
2022/08/01 00:20:13;;;;;;;7.85;5.82;;;;;;;15.38;100.00;93113.84;5096681;28;20040;-71
2022/08/01 00:22:40;;;;;;;7.57;6.15;;;;;;;15.21;100.00;93101.75;5095621;28;20224;-71
2022/08/01 00:25:09;;;;;;;7.90;7.10;;;;;;;15.25;100.00;93109.81;5095329;28;20107;-71
2022/08/01 00:27:36;;;;;;;7.15;6.43;;;;;;;15.15;100.00;93107.88;5096852;28;20055;-71
2022/08/01 00:30:02;;;;;;;7.00;6.30;;;;;;;15.13;100.00;93103.97;5103132;28;20090;-71
2022/08/01 00:32:32;;;;;;;8.70;6.55;;;;;;;15.08;100.00;93096.91;5099690;28;20051;-71
2022/08/01 00:34:59;;;;;;;7.47;6.57;;;;;;;15.06;100.00;93097.16;5094507;28;20090;-71
2022/08/01 00:37:25;;;;;;;6.45;5.78;;;;;;;14.99;100.00;93106.13;5099725;28;20145;-71
2022/08/01 00:39:52;;;;;;;6.70;6.00;;;;;;;14.98;100.00;93104.53;5103247;28;20051;-71
2022/08/01 00:42:20;;;;;;;7.22;6.43;;;;;;;14.91;100.00;93102.16;5096615;28;20505;-72
2022/08/01 00:44:47;;;;;;;6.70;6.10;;;;;;;14.86;100.00;93099.50;5095321;28;20101;-71
2022/08/01 00:47:14;;;;;;;6.70;6.00;;;;;;;14.80;100.00;93096.84;5090579;28;20085;-71
2022/08/01 00:49:40;;;;;;;6.45;5.85;;;;;;;14.79;100.00;93095.28;5100988;28;20097;-71
2022/08/01 00:52:09;;;;;;;6.60;5.93;;;;;;;14.75;100.00;93090.78;5103915;28;20048;-71
2022/08/01 00:54:36;;;;;;;7.07;6.38;;;;;;;14.76;100.00;93087.22;5107091;28;20044;-71
2022/08/01 00:57:04;;;;;;;7.82;6.53;;;;;;;14.78;100.00;93090.34;5095764;28;20052;-71
2022/08/01 00:59:33;;;;;;;8.32;6.65;;;;;;;14.73;100.00;93087.66;5103302;28;20481;-71
2022/08/01 01:01:59;;;;;;;7.50;5.90;;;;;;;14.79;100.00;93094.47;5100736;28;20043;-71
2022/08/01 01:04:26;;;;;;;9.20;6.45;;;;;;;14.72;100.00;93097.19;5094917;28;20452;-71
2022/08/01 01:07:01;;;;;;;6.75;6.03;;;;;;;14.72;100.00;93099.78;5099044;28;20056;-72
2022/08/01 01:09:39;;;;;;;7.00;5.60;;;;;;;14.74;100.00;93094.38;5103213;28;20044;-72
2022/08/01 01:12:14;;;;;;;8.25;5.60;;;;;;;14.59;100.00;93066.53;5099959;28;20055;-72
2022/08/01 01:14:51;;;;;;;6.03;5.43;;;;;;;14.59;100.00;93082.81;5094490;28;20493;-72
2022/08/01 01:17:22;;;;;;;7.00;5.97;;;;;;;14.43;100.00;93072.25;5097251;28;20101;-72
2022/08/01 01:19:55;;;;;;;7.05;6.35;;;;;;;14.43;100.00;93081.81;5102802;28;20121;-72
2022/08/01 01:22:36;;;;;;;6.80;5.63;;;;;;;14.42;100.00;93086.22;5100450;28;20096;-72
2022/08/01 01:25:22;;;;;;;7.70;6.30;;;;;;;14.39;100.00;93075.53;5094366;28;20036;-71
2022/08/01 01:27:54;;;;;;;8.10;6.47;;;;;;;14.36;100.00;93083.78;5094793;28;20044;-71
2022/08/01 01:30:26;;;;;;;8.25;6.60;;;;;;;14.37;100.00;93073.22;5101557;28;20067;-71
2022/08/01 01:32:54;;;;;;;9.02;6.78;;;;;;;14.39;100.00;93078.91;5102681;28;20051;-71
2022/08/01 01:35:26;;;;;;;8.27;6.13;;;;;;;14.37;100.00;93075.78;5094357;28;20054;-72
2022/08/01 01:37:59;;;;;;;7.22;6.55;;;;;;;14.35;100.00;93080.41;5095152;28;20089;-72
2022/08/01 01:40:28;;;;;;;9.15;6.63;;;;;;;14.29;100.00;93071.00;5094876;28;20047;-72
2022/08/01 01:42:57;;;;;;;7.65;6.85;;;;;;;14.33;100.00;93073.91;5096098;28;20048;-72
2022/08/01 01:45:27;;;;;;;7.85;6.78;;;;;;;14.34;100.00;93067.75;5105063;28;20406;-72
2022/08/01 01:47:55;;;;;;;7.90;7.10;;;;;;;14.17;100.00;93045.28;5099446;28;20118;-72
2022/08/01 01:50:24;;;;;;;6.82;6.13;;;;;;;14.38;100.00;93068.81;5098006;28;20048;-72
2022/08/01 01:52:52;;;;;;;8.45;5.72;;;;;;;14.33;100.00;93073.91;5098602;28;20066;-72
2022/08/01 01:55:22;;;;;;;8.60;6.13;;;;;;;14.33;100.00;93073.91;5099312;28;20093;-71
2022/08/01 01:57:51;;;;;;;7.88;6.38;;;;;;;14.36;100.00;93082.00;5106244;28;20044;-71
2022/08/01 02:00:18;;;;;;;6.40;5.47;;;;;;;14.35;100.00;93070.06;5103636;28;20470;-71
2022/08/01 02:02:47;;;;;;;6.57;5.47;;;;;;;14.32;100.00;93069.75;5097663;28;20084;-71
2022/08/01 02:05:14;;;;;;;8.18;5.35;;;;;;;14.30;100.00;93080.31;5101367;28;20551;-71
2022/08/01 02:07:42;;;;;;;5.82;4.90;;;;;;;14.29;100.00;93066.63;5105768;28;20558;-71
2022/08/01 02:10:11;;;;;;;5.90;5.22;;;;;;;14.26;100.00;93071.50;5100853;28;20123;-71
2022/08/01 02:12:42;;;;;;;6.15;5.35;;;;;;;14.12;100.00;93055.53;5097705;28;20093;-71
2022/08/01 02:15:10;;;;;;;6.55;5.65;;;;;;;14.11;100.00;93064.28;5103783;28;20043;-71
2022/08/01 02:17:41;;;;;;;5.78;5.18;;;;;;;14.14;100.00;93059.44;5105629;28;20134;-72
2022/08/01 02:20:10;;;;;;;6.70;5.75;;;;;;;14.12;100.00;93060.69;5098342;28;20089;-71
2022/08/01 02:22:43;;;;;;;8.05;5.88;;;;;;;14.04;100.00;93059.28;5098223;28;20117;-71
2022/08/01 02:25:17;;;;;;;6.22;5.57;;;;;;;14.09;100.00;93067.13;5097998;28;20386;-71
2022/08/01 02:27:48;;;;;;;6.10;5.43;;;;;;;14.03;100.00;93066.25;5097649;28;20509;-72
2022/08/01 02:30:16;;;;;;;7.53;5.70;;;;;;;13.86;100.00;93063.66;5097666;28;20051;-71
2022/08/01 02:32:47;;;;;;;6.18;5.57;;;;;;;13.90;100.00;93057.00;5098981;28;20089;-71
2022/08/01 02:35:21;;;;;;;6.88;6.00;;;;;;;13.96;100.00;93049.31;5105147;28;20472;-71
2022/08/01 02:37:49;;;;;;;5.80;5.13;;;;;;;13.88;100.00;93061.63;5103898;28;20089;-72
2022/08/01 02:40:18;;;;;;;6.75;5.45;;;;;;;13.07;100.00;93065.84;5096712;28;20628;-72
2022/08/01 02:42:48;;;;;;;6.28;5.68;;;;;;;13.04;100.00;93060.34;5100204;28;20081;-72
2022/08/01 02:45:18;;;;;;;7.28;5.78;;;;;;;13.25;100.00;93055.59;5105225;28;20044;-72
2022/08/01 02:47:46;;;;;;;6.75;5.75;;;;;;;13.30;100.00;93060.84;5090731;28;20040;-72
2022/08/01 02:50:17;;;;;;;6.65;5.63;;;;;;;12.84;100.00;93058.94;5090658;28;20052;-72
2022/08/01 02:52:47;;;;;;;6.43;5.82;;;;;;;12.97;100.00;93045.03;5110692;28;20043;-72
2022/08/01 02:55:14;;;;;;;5.93;5.32;;;;;;;13.14;100.00;93054.63;5098697;28;20558;-72
2022/08/01 02:57:43;;;;;;;8.82;5.95;;;;;;;13.27;100.00;93053.56;5104105;28;20048;-72
2022/08/01 03:00:11;;;;;;;7.07;5.80;;;;;;;13.43;100.00;93057.22;5101306;28;20512;-72
2022/08/01 03:02:39;;;;;;;6.28;5.43;;;;;;;13.44;100.00;93063.94;5096456;28;20089;-71
2022/08/01 03:05:08;;;;;;;6.80;5.57;;;;;;;13.16;100.00;93058.53;5101547;28;20451;-71
2022/08/01 03:07:37;;;;;;;6.28;5.68;;;;;;;13.21;100.00;93060.44;5104658;28;20051;-71
2022/08/01 03:10:05;;;;;;;6.78;6.07;;;;;;;13.33;100.00;93052.66;5098914;28;20090;-71
2022/08/01 03:12:35;;;;;;;6.90;5.90;;;;;;;13.35;100.00;93051.41;5096465;28;20569;-71
2022/08/01 03:15:04;;;;;;;6.25;5.28;;;;;;;13.37;100.00;93053.75;5103930;28;20097;-71
2022/08/01 03:17:33;;;;;;;5.95;5.30;;;;;;;13.39;100.00;93050.94;5104109;28;20055;-71
2022/08/01 03:20:02;;;;;;;5.88;5.22;;;;;;;13.49;100.00;93059.69;5096810;28;20043;-70
2022/08/01 03:22:31;;;;;;;6.30;5.60;;;;;;;13.56;100.00;93069.84;5098318;28;20050;-70
2022/08/01 03:25:01;;;;;;;7.22;5.03;;;;;;;13.55;100.00;93062.34;5104296;28;20153;-70
2022/08/01 03:27:29;;;;;;;8.32;5.38;;;;;;;13.49;100.00;93064.84;5101611;28;20047;-70
2022/08/01 03:29:59;;;;;;;7.03;5.20;;;;;;;13.49;100.00;93064.06;5096725;28;20040;-70
2022/08/01 03:32:28;;;;;;;7.28;6.03;;;;;;;13.55;100.00;93052.81;5100178;28;20044;-70
2022/08/01 03:34:54;;;;;;;7.68;5.65;;;;;;;13.60;100.00;93054.69;5104390;28;20047;-70
2022/08/01 03:37:26;;;;;;;7.30;5.75;;;;;;;13.62;100.00;93068.16;5099126;28;20044;-70
2022/08/01 03:39:58;;;;;;;6.40;5.50;;;;;;;13.69;100.00;93080.91;5096069;28;20995;-70
2022/08/01 03:42:32;;;;;;;7.55;5.30;;;;;;;13.67;100.00;93070.03;5101413;28;20501;-70
2022/08/01 03:45:05;;;;;;;10.20;5.60;;;;;;;13.60;100.00;93063.22;5104042;28;20047;-70
2022/08/01 03:47:34;;;;;;;5.93;4.75;;;;;;;13.64;100.00;93076.44;5094095;28;20501;-71
2022/08/01 03:50:03;;;;;;;5.95;4.93;;;;;;;13.58;100.00;93067.03;5099064;28;20416;-71
2022/08/01 03:52:32;;;;;;;8.55;5.75;;;;;;;13.64;100.00;93076.44;5104433;28;20044;-71
2022/08/01 03:55:02;;;;;;;9.20;5.93;;;;;;;13.61;100.00;93067.34;5099681;28;20044;-71
2022/08/01 03:57:31;;;;;;;9.02;5.53;;;;;;;13.65;100.00;93072.06;5095403;28;20048;-71
2022/08/01 03:59:59;;;;;;;7.32;5.53;;;;;;;13.66;100.00;93076.22;5100779;28;20051;-71
2022/08/01 04:02:28;;;;;;;7.93;5.45;;;;;;;13.61;100.00;93076.91;5103979;28;20047;-72
2022/08/01 04:04:55;;;;;;;8.32;5.57;;;;;;;13.63;100.00;93080.84;5096826;28;20040;-72
2022/08/01 04:07:24;;;;;;;10.27;5.20;;;;;;;13.69;100.00;93078.31;5095775;28;20089;-71
2022/08/01 04:09:50;;;;;;;9.45;5.25;;;;;;;13.74;100.00;93075.81;5096187;28;20047;-71
2022/08/01 04:12:17;;;;;;;6.95;5.95;;;;;;;13.77;100.00;93080.53;5097327;28;20055;-71
2022/08/01 04:14:45;;;;;;;7.10;5.43;;;;;;;13.84;100.00;93081.16;5103852;28;20550;-71
2022/08/01 04:17:12;;;;;;;6.07;4.85;;;;;;;13.87;100.00;93080.72;5100394;28;20058;-71
2022/08/01 04:19:39;;;;;;;9.60;5.30;;;;;;;13.81;100.00;93078.28;5095466;28;20455;-71
2022/08/01 04:22:07;;;;;;;8.00;4.45;;;;;;;13.85;100.00;93074.22;5100502;28;20127;-71
2022/08/01 04:24:36;;;;;;;6.22;4.93;;;;;;;13.92;100.00;93064.50;5103515;28;20047;-71
2022/08/01 04:27:09;;;;;;;6.78;5.20;;;;;;;13.96;100.00;93070.78;5097282;28;20445;-71
2022/08/01 04:29:38;;;;;;;8.20;5.10;;;;;;;14.03;100.00;93061.06;5094801;28;20587;-71
2022/08/01 04:32:09;;;;;;;8.02;5.47;;;;;;;14.10;100.00;93063.50;5101956;28;20101;-71
2022/08/01 04:34:39;;;;;;;6.57;5.30;;;;;;;14.21;100.00;93072.19;5103342;28;20393;-71
2022/08/01 04:37:09;;;;;;;9.10;4.78;;;;;;;14.22;100.00;93070.41;5096092;28;20043;-71
2022/08/01 04:39:38;;;;;;;5.65;4.68;;;;;;;14.06;100.00;93056.47;5095948;28;20062;-71
2022/08/01 04:42:06;;;;;;;5.72;5.07;;;;;;;14.10;100.00;93071.25;5103172;28;20728;-71
2022/08/01 04:44:33;;;;;;;6.65;4.57;;;;;;;14.16;100.00;93066.94;5100871;28;20496;-71
2022/08/01 04:47:03;;;;;;;7.55;4.97;;;;;;;14.28;100.00;93072.03;5090630;28;20052;-71
2022/08/01 04:49:32;;;;;;;6.90;4.95;;;;;;;14.33;100.00;93066.94;5102751;28;20131;-71
2022/08/01 04:51:59;;;;;;;6.38;4.32;;;;;;;14.45;100.00;93073.81;5102348;28;20501;-71
2022/08/01 04:54:27;;;;;;;6.85;5.18;;;;;;;14.54;100.00;93072.41;5094810;28;20508;-72
2022/08/01 04:56:55;;;;;;;7.63;4.38;;;;;;;14.61;100.00;93067.84;5097312;28;20511;-73
2022/08/01 04:59:40;;;;;;;7.28;5.13;;;;;;;14.63;100.00;93070.22;5103330;28;20090;-73
2022/08/01 05:02:08;;;;;;;5.38;3.83;;;;;;;14.36;100.00;93070.84;5101703;28;20636;-72
2022/08/01 05:04:37;;;;;;;4.97;4.03;;;;;;;14.38;100.00;93085.09;5094809;28;20048;-72
2022/08/01 05:07:05;;;;;;;5.38;4.00;;;;;;;14.43;100.00;93074.06;5097260;28;20578;-72
2022/08/01 05:09:32;;;;;;;6.68;3.83;;;;;;;14.48;100.00;93068.19;5102706;28;20048;-74
2022/08/01 05:12:01;;;;;;;4.80;3.83;;;;;;;14.60;100.00;93061.13;5099027;28;20044;-73
2022/08/01 05:14:28;;;;;;;7.80;3.60;;;;;;;14.71;100.00;93069.78;5094519;28;20184;-72
2022/08/01 05:16:56;;;;;;;5.47;3.67;;;;;;;14.85;100.00;93067.66;5100174;28;20092;-72
2022/08/01 05:19:23;;;;;;;6.65;3.70;;;;;;;15.01;100.00;93067.84;5103926;28;20443;-72
2022/08/01 05:21:51;;;;;;;4.85;3.53;;;;;;;15.14;100.00;93070.06;5100055;28;20438;-73
2022/08/01 05:24:18;;;;;;;4.13;3.22;;;;;;;15.19;100.00;93066.78;5099184;28;20050;-73
2022/08/01 05:26:45;;;;;;;4.70;3.30;;;;;;;15.32;100.00;93068.22;5106868;28;20077;-73
2022/08/01 05:29:12;;;;;;;6.15;3.80;;;;;;;15.44;100.00;93058.50;5103971;28;20609;-74
2022/08/01 05:31:38;;;;;;;5.22;3.58;;;;;;;15.55;100.00;93074.16;5098534;28;20052;-74
2022/08/01 05:34:05;;;;;;;4.85;3.25;;;;;;;15.67;100.00;93081.75;5102964;28;20432;-74
2022/08/01 05:36:32;;;;;;;4.38;2.97;;;;;;;15.71;100.00;93080.25;5106387;28;20048;-74
2022/08/01 05:39:00;;;;;;;5.38;3.25;;;;;;;15.76;100.00;93077.72;5100759;28;20092;-75
2022/08/01 05:41:27;;;;;;;4.78;3.38;;;;;;;15.92;100.00;93085.63;5098282;28;20048;-74
2022/08/01 05:43:54;;;;;;;4.32;3.08;;;;;;;16.02;100.00;93083.94;5105774;28;20134;-74
2022/08/01 05:46:20;;;;;;;5.57;3.22;;;;;;;16.16;100.00;93079.13;5096225;28;20459;-75
2022/08/01 05:48:47;;;;;;;4.55;3.05;;;;;;;16.21;100.00;93075.00;5106369;28;20096;-75
2022/08/01 05:51:14;;;;;;;4.05;3.30;;;;;;;16.33;100.00;93077.44;5099238;28;20043;-75
2022/08/01 05:53:41;;;;;;;8.32;3.58;;;;;;;16.45;100.00;93072.06;5101350;28;20070;-74
2022/08/01 05:56:09;;;;;;;5.18;3.13;;;;;;;16.65;100.00;93076.59;5096194;28;20036;-74
2022/08/01 05:58:35;;;;;;;7.13;3.22;;;;;;;16.74;100.00;93082.06;5101349;28;20048;-75
2022/08/01 06:01:02;;;;;;;6.32;3.38;;;;;;;16.88;100.00;93082.41;5106157;28;20109;-75
2022/08/01 06:03:31;;;;;;;5.63;3.40;;;;;;;17.06;100.00;93078.63;5101105;28;20096;-75
2022/08/01 06:05:58;;;;;;;6.05;3.85;;;;;;;17.32;100.00;93089.13;5097647;28;20534;-75
2022/08/01 06:08:24;;;;;;;7.35;3.75;;;;;;;17.46;100.00;93084.25;5104234;28;20048;-75
2022/08/01 06:10:51;;;;;;;7.93;4.13;;;;;;;17.65;100.00;93087.16;5105693;28;20442;-75
2022/08/01 06:13:19;;;;;;;7.63;5.00;;;;;;;17.92;99.49;93087.97;5097342;28;20055;-75
2022/08/01 06:15:46;;;;;;;12.02;6.50;;;;;;;18.20;97.02;93097.13;5099575;28;20044;-75
2022/08/01 06:18:14;;;;;;;16.75;8.98;;;;;;;18.45;90.70;93098.16;5105699;28;20117;-75
2022/08/01 06:20:41;;;;;;;18.75;8.73;;;;;;;18.76;90.34;93102.53;5091388;28;20052;-75
2022/08/01 06:23:08;;;;;;;19.60;9.38;;;;;;;18.95;84.75;93100.16;5090880;28;20044;-75
2022/08/01 06:25:35;;;;;;;18.38;8.30;;;;;;;19.29;82.54;93102.16;5097941;28;20195;-75
2022/08/01 06:28:02;;;;;;;17.65;7.20;;;;;;;19.50;76.55;93112.50;5097577;28;20044;-75
2022/08/01 06:30:30;;;;;;;15.80;8.30;;;;;;;19.77;79.78;93099.06;5090511;28;20043;-75
2022/08/01 06:32:58;;;;;;;15.18;7.32;;;;;;;20.09;76.50;93104.13;5092875;28;20091;-75
2022/08/01 06:35:25;;;;;;;15.38;6.80;;;;;;;20.54;82.41;93098.81;5096896;28;20044;-75
2022/08/01 06:37:52;;;;;;;16.30;7.40;;;;;;;20.82;78.22;93071.13;5105074;28;20040;-76
2022/08/01 06:40:18;;;;;;;12.15;6.57;;;;;;;21.28;75.84;93095.22;5101009;28;20470;-75
2022/08/01 06:42:46;;;;;;;8.88;4.40;;;;;;;21.52;69.34;93077.97;5096844;28;20056;-75
2022/08/01 06:45:14;;;;;;;6.75;3.45;;;;;;;21.74;64.76;93088.66;5102790;28;20494;-76
2022/08/01 06:47:43;;;;;;;7.63;3.92;;;;;;;21.41;62.47;93087.75;5096642;28;20047;-75
2022/08/01 06:50:11;;;;;;;8.15;3.15;;;;;;;21.16;63.58;93074.72;5099018;28;20492;-75
2022/08/01 06:52:38;;;;;;;7.65;4.13;;;;;;;20.92;67.13;93078.09;5105058;28;20044;-75
2022/08/01 06:55:05;;;;;;;4.40;2.53;;;;;;;21.11;63.52;93074.00;5101668;28;20900;-75
2022/08/01 06:57:32;;;;;;;6.00;2.72;;;;;;;21.43;62.00;93072.59;5105085;28;20070;-75
2022/08/01 07:00:02;;;;;;;8.90;3.42;;;;;;;21.33;61.32;93073.47;5102817;28;20089;-74
2022/08/01 07:02:29;;;;;;;8.27;2.40;;;;;;;21.87;64.24;93070.72;5103956;28;20040;-75
2022/08/01 07:04:59;;;;;;;9.68;3.60;;;;;;;22.28;64.53;93067.47;5089620;28;20044;-75
2022/08/01 07:07:26;;;;;;;9.63;4.43;;;;;;;21.94;62.33;93065.13;5097051;28;20048;-75
2022/08/01 07:09:53;;;;;;;10.07;3.83;;;;;;;21.56;62.97;93066.66;5100017;28;20563;-75
2022/08/01 07:12:20;;;;;;;10.32;3.50;;;;;;;22.06;66.33;93059.44;5093935;28;20040;-75
2022/08/01 07:14:46;;;;;;;9.50;4.05;;;;;;;22.51;65.99;93065.03;5101883;28;20052;-76
2022/08/01 07:17:13;;;;;;;6.88;3.30;;;;;;;22.69;63.24;93073.13;5104577;28;21201;-75
2022/08/01 07:19:40;;;;;;;6.30;2.30;;;;;;;23.02;62.94;93067.81;5097282;28;20044;-75
2022/08/01 07:22:08;;;;;;;5.13;2.17;;;;;;;22.50;62.59;93068.69;5097517;28;20056;-75
2022/08/01 07:24:35;;;;;;;2.67;1.95;;;;;;;22.52;62.28;93068.41;5098664;28;20039;-74
2022/08/01 07:27:01;;;;;;;3.08;1.67;;;;;;;22.77;61.19;93066.44;5098657;28;20448;-75
2022/08/01 07:29:28;;;;;;;2.88;1.50;;;;;;;22.67;60.09;93049.84;5104014;28;20051;-75
2022/08/01 07:31:56;;;;;;;3.97;2.17;;;;;;;22.51;62.33;93062.41;5099846;28;20120;-74
2022/08/01 07:34:24;;;;;;;3.55;1.92;;;;;;;23.09;63.34;93062.97;5096080;28;20048;-75
2022/08/01 07:36:51;;;;;;;3.50;1.73;;;;;;;23.39;58.85;93070.53;5101788;28;20509;-76
2022/08/01 07:39:19;;;;;;;7.75;2.25;;;;;;;23.44;59.43;93061.78;5104392;28;20048;-76
2022/08/01 07:41:46;;;;;;;2.50;1.67;;;;;;;22.22;60.01;93068.59;5096244;28;20489;-75
2022/08/01 07:44:13;;;;;;;4.13;1.70;;;;;;;22.47;63.16;93058.00;5091207;28;20512;-75
2022/08/01 07:46:40;;;;;;;6.18;1.85;;;;;;;22.88;60.38;93067.03;5097291;28;20097;-75
2022/08/01 07:49:07;;;;;;;4.78;2.03;;;;;;;23.17;60.44;93058.09;5103978;28;20117;-76
2022/08/01 07:51:34;;;;;;;2.78;1.90;;;;;;;23.42;60.41;93051.59;5099695;28;20058;-75
2022/08/01 07:54:01;;;;;;;4.07;2.10;;;;;;;23.67;59.55;93057.38;5095395;28;20489;-75
2022/08/01 07:56:29;;;;;;;5.85;2.00;;;;;;;23.72;59.12;93061.72;5101639;28;20044;-75
2022/08/01 07:58:55;;;;;;;3.08;1.90;;;;;;;23.29;58.93;93052.38;5103454;28;20047;-74
2022/08/01 08:01:22;;;;;;;4.32;2.03;;;;;;;23.20;61.28;93060.91;5108109;28;20043;-75
2022/08/01 08:03:49;;;;;;;3.17;2.13;;;;;;;23.65;61.64;93043.00;5096764;28;20052;-74
2022/08/01 08:06:16;;;;;;;5.32;2.22;;;;;;;23.92;59.47;93060.50;5103314;28;20049;-74
2022/08/01 08:08:42;;;;;;;4.85;1.98;;;;;;;24.22;58.61;93053.03;5100349;28;20505;-75
2022/08/01 08:11:09;;;;;;;8.30;2.33;;;;;;;24.66;59.01;93060.34;5095454;28;20097;-75
2022/08/01 08:13:37;;;;;;;4.05;2.25;;;;;;;24.69;55.83;93067.63;5100376;28;20452;-74
2022/08/01 08:16:04;;;;;;;3.13;1.98;;;;;;;24.49;56.63;93051.31;5103669;28;20048;-74
2022/08/01 08:18:31;;;;;;;4.18;1.95;;;;;;;24.61;56.12;93053.38;5096821;28;20044;-74
2022/08/01 08:20:58;;;;;;;9.82;5.88;;;;;;;24.12;56.57;93048.03;5095686;28;20044;-75
2022/08/01 08:26:09;;;;;;;5.28;2.53;;;;;;;24.83;55.23;93043.94;5095007;28;20054;-75
2022/08/01 08:28:37;;;;;;;3.30;1.52;;;;;;;24.51;54.36;93037.88;5102397;28;20501;-75
2022/08/01 08:31:03;;;;;;;3.97;1.98;;;;;;;24.39;54.55;93046.34;5094325;28;20043;-75
2022/08/01 08:33:30;;;;;;;4.40;2.13;;;;;;;24.02;55.55;93041.91;5103204;28;20044;-74
2022/08/01 08:35:57;;;;;;;4.90;1.67;;;;;;;23.75;53.25;93054.03;5102048;28;20097;-75
2022/08/01 08:38:25;;;;;;;3.53;1.75;;;;;;;23.73;54.50;93056.19;5088563;28;20048;-75
2022/08/01 08:40:53;;;;;;;2.60;1.65;;;;;;;23.18;54.77;93057.81;5104499;28;20548;-74
2022/08/01 08:43:20;;;;;;;3.83;1.50;;;;;;;23.16;57.19;93051.31;5098624;28;20101;-74
2022/08/01 08:45:49;;;;;;;4.35;2.13;;;;;;;23.21;54.79;93040.72;5095235;28;20566;-75
2022/08/01 08:48:16;;;;;;;4.30;2.00;;;;;;;23.04;55.05;93036.06;5095038;28;20176;-75
2022/08/01 08:50:44;;;;;;;4.53;1.48;;;;;;;23.11;56.13;93041.72;5103365;28;20051;-75
2022/08/01 08:53:14;;;;;;;3.85;1.80;;;;;;;23.03;57.12;93043.16;5098102;28;20043;-73
2022/08/01 08:55:43;;;;;;;4.15;1.70;;;;;;;22.77;56.18;93038.41;5098252;28;20052;-73
2022/08/01 08:58:13;;;;;;;4.22;1.75;;;;;;;22.99;59.00;93039.56;5097151;28;20048;-73
2022/08/01 09:00:40;;;;;;;2.70;1.60;;;;;;;22.41;56.23;93037.16;5102243;28;20043;-73
2022/08/01 09:03:08;;;;;;;3.33;1.75;;;;;;;22.22;59.09;93028.59;5102240;28;20095;-73
2022/08/01 09:05:35;;;;;;;2.22;1.33;;;;;;;22.66;58.41;93026.56;5106482;28;20493;-73
2022/08/01 09:08:02;;;;;;;4.10;1.70;;;;;;;22.94;57.18;93037.84;5102476;28;20107;-73
2022/08/01 09:10:28;;;;;;;2.70;1.65;;;;;;;22.88;55.13;93032.97;5098836;28;20044;-73
2022/08/01 09:13:10;;;;;;;4.13;1.83;;;;;;;23.27;56.52;93023.06;5105237;28;20464;-73
2022/08/01 09:15:42;;;;;;;3.63;1.85;;;;;;;23.45;54.95;93034.50;5108738;28;20108;-74
2022/08/01 09:18:27;;;;;;;3.13;1.85;;;;;;;23.74;53.84;93033.34;5112818;28;20044;-73
2022/08/01 09:21:09;;;;;;;3.35;2.03;;;;;;;24.23;54.55;93030.94;5105696;28;20489;-73
2022/08/01 09:23:39;;;;;;;4.53;1.75;;;;;;;24.50;53.11;93005.63;5106627;28;20040;-75
2022/08/01 09:26:06;;;;;;;2.47;1.25;;;;;;;24.57;51.78;93025.41;5100465;28;20105;-74
2022/08/01 09:28:34;;;;;;;2.20;1.60;;;;;;;24.24;51.68;93022.00;5098238;28;20048;-75
2022/08/01 09:31:07;;;;;;;3.13;2.00;;;;;;;24.90;52.20;93015.34;5098711;28;20039;-75
2022/08/01 09:33:49;;;;;;;4.75;1.75;;;;;;;25.47;51.53;93026.16;5099133;28;20136;-75
2022/08/01 09:36:16;;;;;;;2.20;1.40;;;;;;;25.51;48.13;93013.16;5099900;28;20055;-75
2022/08/01 09:38:43;;;;;;;2.00;1.27;;;;;;;25.86;49.97;93018.44;5098793;28;20090;-75
2022/08/01 09:41:11;;;;;;;4.20;2.15;;;;;;;25.81;48.83;93023.84;5106628;28;20037;-75
2022/08/01 09:43:38;;;;;;;3.88;1.40;;;;;;;25.25;47.84;93016.53;5104723;28;20052;-75
2022/08/01 09:46:09;;;;;;;4.40;1.50;;;;;;;24.53;50.99;93009.50;5094164;28;20048;-75
2022/08/01 09:48:39;;;;;;;4.55;1.58;;;;;;;24.92;50.64;93010.59;5105593;28;20108;-74
2022/08/01 09:51:07;;;;;;;3.67;1.75;;;;;;;25.37;48.83;93013.31;5097971;28;20043;-75
2022/08/01 09:53:46;;;;;;;4.22;1.52;;;;;;;25.05;48.16;93016.78;5099629;28;20408;-74
2022/08/01 09:56:14;;;;;;;4.93;1.80;;;;;;;24.54;50.57;93006.53;5097814;28;20055;-74
2022/08/01 09:58:55;;;;;;;4.15;2.20;;;;;;;22.93;52.71;93019.78;5099596;28;20052;-75
2022/08/01 10:01:22;;;;;;;2.75;1.63;;;;;;;23.42;52.85;93014.13;5110221;28;20108;-74
2022/08/01 10:04:06;;;;;;;3.78;1.88;;;;;;;24.11;49.35;93007.88;5099460;28;20070;-75
2022/08/01 10:06:35;;;;;;;2.30;1.60;;;;;;;24.39;48.22;93004.34;5098909;28;20390;-75
2022/08/01 10:09:02;;;;;;;3.05;1.60;;;;;;;24.64;48.73;93004.75;5097955;28;20051;-75
2022/08/01 10:11:29;;;;;;;3.47;1.52;;;;;;;24.72;49.01;92993.50;5105826;28;20044;-75
2022/08/01 10:13:57;;;;;;;4.18;1.67;;;;;;;25.32;49.47;92998.47;5088786;28;20044;-75
2022/08/01 10:16:25;;;;;;;2.88;1.67;;;;;;;25.52;47.30;92996.28;5103500;28;20040;-75
2022/08/01 10:18:53;;;;;;;2.72;1.70;;;;;;;24.88;48.39;93007.00;5102630;28;20051;-75
2022/08/01 10:21:20;;;;;;;4.38;2.05;;;;;;;24.81;47.71;92999.56;5097478;28;20044;-75
2022/08/01 10:23:49;;;;;;;6.53;1.70;;;;;;;25.07;45.07;93006.75;5102046;28;20451;-75
2022/08/01 10:26:17;;;;;;;3.95;1.63;;;;;;;24.50;44.90;93000.38;5105239;28;20047;-75
2022/08/01 10:28:48;;;;;;;2.35;1.45;;;;;;;24.70;47.81;92990.38;5099503;28;20062;-75
2022/08/01 10:31:17;;;;;;;2.38;1.55;;;;;;;24.90;47.25;92981.19;5096799;28;20101;-75
2022/08/01 10:33:44;;;;;;;2.20;1.55;;;;;;;25.31;47.51;92986.38;5103966;28;20101;-75
2022/08/01 10:36:11;;;;;;;2.75;1.60;;;;;;;25.46;46.82;92974.66;5104791;28;20051;-75
2022/08/01 10:38:38;;;;;;;3.15;1.60;;;;;;;25.86;46.94;92995.53;5096769;28;20446;-75
2022/08/01 10:41:06;;;;;;;2.17;1.60;;;;;;;26.32;46.45;92983.88;5099684;28;20048;-75
2022/08/01 10:43:33;;;;;;;2.40;1.50;;;;;;;26.41;44.65;92993.31;5108421;28;20108;-75
2022/08/01 10:46:01;;;;;;;1.80;1.10;;;;;;;25.90;45.17;92979.91;5105817;28;20040;-75
2022/08/01 10:48:34;;;;;;;3.08;1.45;;;;;;;26.45;45.01;92985.53;5110589;28;20558;-75
2022/08/01 10:51:04;;;;;;;2.30;1.55;;;;;;;26.76;45.15;92971.28;5105628;28;20101;-75
2022/08/01 10:53:32;;;;;;;2.20;1.45;;;;;;;26.88;45.22;92988.31;5092533;28;21195;-75
2022/08/01 10:56:03;;;;;;;4.38;1.90;;;;;;;26.57;45.34;92979.63;5091239;28;20430;-76
2022/08/01 10:58:36;;;;;;;4.60;1.70;;;;;;;25.67;45.52;92972.19;5096315;28;20040;-75
2022/08/01 11:01:26;;;;;;;3.25;1.38;;;;;;;25.70;47.45;92981.31;5096398;28;20062;-75
2022/08/01 11:04:08;;;;;;;3.60;1.42;;;;;;;25.68;47.25;92957.19;5093306;28;20048;-75
2022/08/01 11:06:49;;;;;;;6.05;1.88;;;;;;;26.38;47.90;92974.72;5091761;28;20056;-75
2022/08/01 11:09:25;;;;;;;2.28;1.67;;;;;;;26.22;46.17;92971.78;5095345;28;20051;-73
2022/08/01 11:12:05;;;;;;;3.10;1.60;;;;;;;26.49;46.71;92969.88;5091479;28;20420;-76
2022/08/01 11:14:34;;;;;;;8.23;2.00;;;;;;;26.44;46.59;92959.50;5097167;28;20161;-75
2022/08/01 11:17:31;;;;;;;5.45;1.90;;;;;;;26.81;45.61;92968.47;5097284;28;20044;-75
2022/08/01 11:20:06;;;;;;;4.22;1.63;;;;;;;26.84;46.40;92963.69;5090460;28;20132;-75
2022/08/01 11:22:32;;;;;;;2.65;1.73;;;;;;;26.43;46.99;92966.66;5090269;28;20048;-75
2022/08/01 11:24:59;;;;;;;3.08;1.88;;;;;;;26.04;48.37;92957.88;5098826;28;20044;-75
2022/08/01 11:27:28;;;;;;;3.50;1.67;;;;;;;25.91;48.47;92957.00;5095972;28;20040;-76
2022/08/01 11:30:27;;;;;;;2.50;1.60;;;;;;;26.17;48.75;92935.09;5103532;28;20047;-75
2022/08/01 11:32:55;;;;;;;3.03;1.67;;;;;;;26.59;48.90;92963.47;5097158;28;20051;-75
2022/08/01 11:35:24;;;;;;;3.70;1.80;;;;;;;26.71;47.07;92960.19;5102858;28;20056;-75
2022/08/01 11:37:52;;;;;;;2.58;1.65;;;;;;;25.98;46.77;92963.34;5104962;28;20131;-76
2022/08/01 11:40:21;;;;;;;2.58;1.88;;;;;;;25.89;47.67;92955.44;5101502;28;20043;-75